Time;durP1;ratioP1;P1;durP2;ratioP2;P2;SDS_P1;SDS_P2;PMS_P1;PMS_P2;Temp;Humidity;BMP_temperature;BMP_pressure;BME280_temperature;BME280_humidity;BME280_pressure;Samples;Min_cycle;Max_cycle;Signal;HPM_P1;HPM_P2
2023/09/16 00:01:21;;;;;;;10.25;7.68;;;;;;;12.83;100.00;100857.09;5878191;30;20090;-89
2023/09/16 00:04:26;;;;;;;10.93;8.00;;;;;;;12.79;100.00;100848.72;5882162;30;20131;-89
2023/09/16 00:07:28;;;;;;;12.60;8.23;;;;;;;12.77;100.00;100850.66;5874260;30;20049;-89
2023/09/16 00:10:30;;;;;;;12.73;8.55;;;;;;;12.77;100.00;100848.06;5876699;30;20040;-89
2023/09/16 00:13:32;;;;;;;13.25;8.40;;;;;;;12.75;100.00;100842.16;5867084;30;20055;-89
2023/09/16 00:16:34;;;;;;;10.80;8.13;;;;;;;12.73;100.00;100846.66;5877720;30;20060;-89
2023/09/16 00:19:36;;;;;;;10.52;8.32;;;;;;;12.71;100.00;100844.16;5878820;30;20132;-88
2023/09/16 00:22:37;;;;;;;10.73;8.75;;;;;;;12.70;100.00;100837.34;5881359;30;20051;-89
2023/09/16 00:25:39;;;;;;;12.38;9.50;;;;;;;12.70;100.00;100837.34;5878582;30;20374;-89
2023/09/16 00:28:43;;;;;;;10.77;8.60;;;;;;;12.67;100.00;100840.19;5873168;30;20505;-88
2023/09/16 00:31:45;;;;;;;10.32;8.10;;;;;;;12.66;100.00;100840.31;5861148;30;20056;-88
2023/09/16 00:34:49;;;;;;;11.13;8.38;;;;;;;12.65;100.00;100839.50;5874284;30;20052;-89
2023/09/16 00:37:50;;;;;;;11.10;8.48;;;;;;;12.65;100.00;100836.09;5869731;30;20451;-89
2023/09/16 00:40:54;;;;;;;10.98;8.60;;;;;;;12.67;100.00;100839.34;5877441;30;20048;-89
2023/09/16 00:43:55;;;;;;;11.20;9.35;;;;;;;12.65;100.00;100839.50;5866527;30;20064;-88
2023/09/16 00:46:57;;;;;;;12.20;8.52;;;;;;;12.64;100.00;100829.22;5863575;30;20049;-88
2023/09/16 00:50:00;;;;;;;13.00;8.77;;;;;;;12.65;100.00;100828.28;5865430;30;20056;-88
2023/09/16 00:53:03;;;;;;;12.50;8.68;;;;;;;12.65;100.00;100825.69;5878405;30;20056;-88
2023/09/16 00:56:05;;;;;;;12.07;8.82;;;;;;;12.64;100.00;100822.25;5851624;30;20247;-88
2023/09/16 00:59:08;;;;;;;14.65;9.52;;;;;;;12.65;100.00;100815.31;5860316;30;20428;-88
2023/09/16 01:02:11;;;;;;;12.07;9.27;;;;;;;12.67;100.00;100816.81;5880034;30;20507;-88
2023/09/16 01:05:20;;;;;;;11.32;9.35;;;;;;;12.66;100.00;100809.16;5877875;30;20051;-88
2023/09/16 01:08:22;;;;;;;11.25;8.38;;;;;;;12.67;100.00;100816.81;5868668;30;20055;-88
2023/09/16 01:11:25;;;;;;;14.57;9.30;;;;;;;12.68;100.00;100823.66;5866189;30;20052;-88
2023/09/16 01:14:27;;;;;;;12.88;9.05;;;;;;;12.67;100.00;100821.16;5874205;30;20105;-88
2023/09/16 01:17:34;;;;;;;9.40;8.05;;;;;;;12.66;100.00;100822.94;5871846;30;20500;-88
2023/09/16 01:20:38;;;;;;;10.32;7.85;;;;;;;12.68;100.00;100826.25;5862536;30;20193;-88
2023/09/16 01:23:42;;;;;;;10.45;8.98;;;;;;;12.68;100.00;100822.84;5857242;30;20220;-88
2023/09/16 01:26:44;;;;;;;10.30;8.43;;;;;;;12.68;100.00;100820.25;5863070;30;20404;-88
2023/09/16 01:29:47;;;;;;;11.65;7.75;;;;;;;12.65;100.00;100807.50;5874302;30;20037;-88
2023/09/16 01:33:16;;;;;;;12.15;8.80;;;;;;;12.64;100.00;100811.03;5865691;30;20523;-88
2023/09/16 01:36:25;;;;;;;10.07;8.23;;;;;;;12.61;100.00;100801.72;5875130;30;20044;-88
2023/09/16 01:39:31;;;;;;;11.45;8.95;;;;;;;12.61;100.00;100798.31;5861473;30;20048;-88
2023/09/16 01:42:35;;;;;;;11.00;7.85;;;;;;;12.63;100.00;100799.03;5876052;30;20053;-88
2023/09/16 01:45:44;;;;;;;10.73;8.10;;;;;;;12.60;100.00;100796.69;5875687;30;20049;-88
2023/09/16 01:48:46;;;;;;;10.75;8.32;;;;;;;12.55;100.00;100799.66;5870624;30;20481;-89
2023/09/16 01:51:48;;;;;;;13.15;8.00;;;;;;;12.53;100.00;100800.75;5874112;30;20562;-88
2023/09/16 01:54:50;;;;;;;12.30;9.05;;;;;;;12.54;100.00;100799.78;5877690;30;20583;-88
2023/09/16 01:57:52;;;;;;;10.77;8.50;;;;;;;12.54;100.00;100802.38;5882761;30;20093;-88
2023/09/16 02:00:54;;;;;;;11.85;8.65;;;;;;;12.55;100.00;100799.66;5860965;30;20057;-88
2023/09/16 02:03:56;;;;;;;11.90;8.48;;;;;;;12.55;100.00;100801.44;5880820;30;20056;-88
2023/09/16 02:06:58;;;;;;;13.25;9.02;;;;;;;12.52;100.00;100792.13;5848907;30;20199;-88
2023/09/16 02:10:03;;;;;;;10.43;7.90;;;;;;;12.51;100.00;100793.06;5880621;30;20103;-88
2023/09/16 02:13:05;;;;;;;11.13;8.27;;;;;;;12.48;100.00;100791.53;5865294;30;20060;-88
2023/09/16 02:16:10;;;;;;;13.80;8.93;;;;;;;12.49;100.00;100794.97;5881469;30;20048;-88
2023/09/16 02:19:12;;;;;;;12.93;8.57;;;;;;;12.47;100.00;100791.66;5864128;30;20729;-88
2023/09/16 02:22:21;;;;;;;9.98;8.13;;;;;;;12.47;100.00;100794.25;5876448;30;20171;-88
2023/09/16 02:25:23;;;;;;;10.10;7.70;;;;;;;12.46;100.00;100792.63;5866529;30;20066;-88
2023/09/16 02:28:26;;;;;;;11.25;8.23;;;;;;;12.45;100.00;100789.22;5877662;30;20047;-88
2023/09/16 02:31:29;;;;;;;11.70;8.32;;;;;;;12.44;100.00;100790.16;5884508;30;20878;-88
2023/09/16 02:34:35;;;;;;;9.93;7.70;;;;;;;12.45;100.00;100791.00;5877339;30;20056;-89
2023/09/16 02:37:37;;;;;;;12.90;8.57;;;;;;;12.42;100.00;100797.25;5866215;30;20048;-89
2023/09/16 02:40:42;;;;;;;12.02;8.48;;;;;;;12.42;100.00;100786.03;5878167;30;20121;-88
2023/09/16 02:43:47;;;;;;;9.70;7.55;;;;;;;12.42;100.00;100796.41;5857512;30;20102;-88
2023/09/16 02:46:50;;;;;;;11.63;8.25;;;;;;;12.43;100.00;100792.88;5848423;30;21402;-88
2023/09/16 02:49:52;;;;;;;11.93;8.68;;;;;;;12.44;100.00;100797.13;5865872;30;20427;-88
2023/09/16 02:52:54;;;;;;;16.33;8.93;;;;;;;12.43;100.00;100785.91;5860810;30;20060;-88
2023/09/16 02:55:56;;;;;;;11.65;8.35;;;;;;;12.47;100.00;100778.69;5868084;30;20063;-88
2023/09/16 02:58:59;;;;;;;11.43;8.43;;;;;;;12.44;100.00;100777.16;5870775;30;20061;-88
2023/09/16 03:02:00;;;;;;;10.75;8.32;;;;;;;12.44;100.00;100776.34;5874372;30;20053;-88
2023/09/16 03:05:03;;;;;;;12.05;8.57;;;;;;;12.48;100.00;100778.56;5885534;30;20044;-88
2023/09/16 03:08:05;;;;;;;14.52;8.82;;;;;;;12.46;100.00;100777.03;5870698;30;20053;-88
2023/09/16 03:11:07;;;;;;;11.73;8.40;;;;;;;12.46;100.00;100771.84;5879043;30;20059;-88
2023/09/16 03:14:11;;;;;;;11.13;8.73;;;;;;;12.47;100.00;100781.28;5862161;30;20444;-88
2023/09/16 03:17:14;;;;;;;11.02;8.50;;;;;;;12.45;100.00;100783.19;5861658;30;20845;-88
2023/09/16 03:20:17;;;;;;;12.60;8.77;;;;;;;12.43;100.00;100769.53;5861262;30;20559;-88
2023/09/16 03:23:20;;;;;;;11.13;8.57;;;;;;;12.41;100.00;100774.81;5866168;30;20060;-88
2023/09/16 03:26:23;;;;;;;11.60;9.38;;;;;;;12.43;100.00;100767.75;5857962;30;20049;-88
2023/09/16 03:29:25;;;;;;;16.33;9.48;;;;;;;12.40;100.00;100765.41;5874698;30;20464;-88
2023/09/16 03:32:29;;;;;;;13.40;9.13;;;;;;;12.43;100.00;100764.31;5866827;30;20059;-88
2023/09/16 03:35:34;;;;;;;13.02;9.43;;;;;;;12.42;100.00;100765.25;5869039;30;20102;-88
2023/09/16 03:38:46;;;;;;;12.65;9.68;;;;;;;12.43;100.00;100761.72;5859004;30;20547;-88
2023/09/16 03:41:49;;;;;;;13.77;9.55;;;;;;;12.42;100.00;100765.25;5865523;30;20570;-88
2023/09/16 03:44:51;;;;;;;12.15;9.52;;;;;;;12.42;100.00;100758.31;5864296;30;20055;-88
2023/09/16 03:47:53;;;;;;;14.40;9.88;;;;;;;12.45;100.00;100770.22;5843353;30;20157;-89
2023/09/16 03:50:55;;;;;;;14.20;9.95;;;;;;;12.46;100.00;100764.06;5858765;30;20061;-88
2023/09/16 03:53:57;;;;;;;12.20;10.00;;;;;;;12.44;100.00;100758.16;5872319;30;20064;-88
2023/09/16 03:57:00;;;;;;;14.07;9.75;;;;;;;12.42;100.00;100760.06;5858052;30;20057;-88
2023/09/16 04:00:07;;;;;;;12.85;10.13;;;;;;;12.41;100.00;100753.25;5856830;30;20083;-88
2023/09/16 04:03:12;;;;;;;;;;;;;;;12.43;100.00;100759.94;5884837;30;20052;-88
2023/09/16 04:06:14;;;;;;;13.18;10.38;;;;;;;12.41;100.00;100755.84;5885574;30;19930;-88
2023/09/16 04:09:16;;;;;;;13.02;9.93;;;;;;;12.38;100.00;100756.91;5866654;30;20052;-88
2023/09/16 04:12:18;;;;;;;12.30;10.25;;;;;;;12.37;100.00;100750.09;5860285;30;20072;-88
2023/09/16 04:15:20;;;;;;;10.93;8.65;;;;;;;12.38;100.00;100748.31;5867198;30;20057;-88
2023/09/16 04:18:23;;;;;;;11.98;8.75;;;;;;;12.36;100.00;100747.59;5879659;30;20056;-88
2023/09/16 04:21:26;;;;;;;10.80;8.52;;;;;;;12.39;100.00;100737.78;5865181;30;20061;-88
2023/09/16 04:24:28;;;;;;;11.27;9.02;;;;;;;12.37;100.00;100746.66;5872985;30;20045;-88
2023/09/16 04:27:30;;;;;;;13.35;9.20;;;;;;;12.39;100.00;100750.75;5864004;30;20782;-88
2023/09/16 04:30:40;;;;;;;12.88;8.52;;;;;;;12.39;100.00;100740.38;5876705;30;20048;-88
2023/09/16 04:33:42;;;;;;;13.30;10.18;;;;;;;12.39;100.00;100742.16;5857796;30;20052;-88
2023/09/16 04:36:45;;;;;;;10.77;8.57;;;;;;;12.43;100.00;100746.97;5861019;30;20044;-88
2023/09/16 04:39:48;;;;;;;12.38;8.65;;;;;;;12.43;100.00;100746.97;5866681;30;20052;-88
2023/09/16 04:42:51;;;;;;;11.85;8.57;;;;;;;12.43;100.00;100740.97;5864212;30;20424;-88
2023/09/16 04:45:55;;;;;;;9.60;8.43;;;;;;;12.47;100.00;100744.94;5867223;30;20194;-88
2023/09/16 04:49:15;;;;;;;14.18;8.73;;;;;;;12.57;100.00;100740.63;5874877;30;20131;-88
2023/09/16 04:52:18;;;;;;;14.65;9.30;;;;;;;12.62;100.00;100742.81;5862247;30;20110;-89
2023/09/16 04:55:21;;;;;;;13.43;9.13;;;;;;;12.67;100.00;100738.06;5868242;30;20063;-88
2023/09/16 04:58:23;;;;;;;11.43;8.88;;;;;;;12.74;100.00;100744.38;5878649;30;20048;-89
2023/09/16 05:01:26;;;;;;;11.77;8.88;;;;;;;12.77;100.00;100741.56;5865030;30;20527;-88
2023/09/16 05:04:29;;;;;;;11.05;8.55;;;;;;;12.86;100.00;100748.53;5878541;30;20412;-88
2023/09/16 05:07:31;;;;;;;11.75;9.05;;;;;;;12.92;100.00;100747.22;5866580;30;20052;-88
2023/09/16 05:10:33;;;;;;;13.40;8.38;;;;;;;12.95;100.00;100744.34;5860742;30;20182;-89
2023/09/16 05:13:35;;;;;;;10.05;7.88;;;;;;;13.02;100.00;100748.06;5864387;30;20156;-89
2023/09/16 05:16:37;;;;;;;10.70;7.57;;;;;;;13.11;100.00;100751.66;5871561;30;20518;-88
2023/09/16 05:19:42;;;;;;;11.57;8.38;;;;;;;13.20;100.00;100747.44;5873560;30;20048;-89
2023/09/16 05:22:48;;;;;;;9.70;8.10;;;;;;;13.27;100.00;100751.19;5858586;30;20055;-88
2023/09/16 05:25:51;;;;;;;10.82;8.20;;;;;;;13.28;100.00;100753.63;5865538;30;20086;-88
2023/09/16 05:29:03;;;;;;;9.07;7.05;;;;;;;13.32;100.00;100746.41;5861112;30;20098;-88
2023/09/16 05:32:07;;;;;;;8.98;7.22;;;;;;;13.39;100.00;100747.53;5859390;30;20056;-89
2023/09/16 05:35:09;;;;;;;10.10;7.82;;;;;;;13.45;100.00;100744.38;5864542;30;20068;-88
2023/09/16 05:38:11;;;;;;;8.15;7.05;;;;;;;13.52;100.00;100740.28;5867151;30;20127;-89
2023/09/16 05:41:13;;;;;;;10.65;6.85;;;;;;;13.62;100.00;100749.88;5863616;30;20161;-89
2023/09/16 05:44:20;;;;;;;9.00;7.07;;;;;;;13.69;100.00;100746.59;5870902;30;20052;-89
2023/09/16 05:47:22;;;;;;;9.32;7.18;;;;;;;13.78;100.00;100755.34;5879094;30;20198;-89
2023/09/16 05:50:24;;;;;;;9.00;7.05;;;;;;;13.87;100.00;100751.94;5860878;30;20072;-89
2023/09/16 05:53:27;;;;;;;8.00;6.57;;;;;;;13.97;100.00;100759.75;5868922;30;20048;-89
2023/09/16 05:56:37;;;;;;;11.45;7.38;;;;;;;14.07;100.00;100757.16;5861113;30;20045;-88
2023/09/16 05:59:40;;;;;;;9.38;7.35;;;;;;;14.17;100.00;100757.97;5861215;30;20412;-89
2023/09/16 06:02:42;;;;;;;7.70;5.95;;;;;;;14.24;100.00;100772.06;5867813;30;20132;-89
2023/09/16 06:05:46;;;;;;;7.95;6.65;;;;;;;14.35;100.00;100773.69;5863241;30;20052;-89
2023/09/16 06:08:48;;;;;;;7.78;6.97;;;;;;;14.43;100.00;100772.03;5862447;30;20049;-89
2023/09/16 06:11:52;;;;;;;7.30;6.28;;;;;;;14.54;100.00;100768.47;5874293;30;20491;-89
2023/09/16 06:14:54;;;;;;;8.32;6.32;;;;;;;14.64;100.00;100769.28;5863665;30;20060;-89
2023/09/16 06:17:56;;;;;;;6.90;5.82;;;;;;;14.74;100.00;100758.00;5864529;30;20134;-89
2023/09/16 06:20:58;;;;;;;9.65;6.72;;;;;;;14.83;100.00;100752.75;5860902;30;20097;-89
2023/09/16 06:24:02;;;;;;;7.50;6.30;;;;;;;14.93;100.00;100752.72;5864737;30;20060;-89
2023/09/16 06:27:04;;;;;;;7.75;6.10;;;;;;;15.02;100.00;100757.06;5858070;30;20148;-89
2023/09/16 06:30:07;;;;;;;7.22;6.30;;;;;;;15.10;100.00;100748.50;5875286;30;20048;-89
2023/09/16 06:33:09;;;;;;;8.98;6.13;;;;;;;15.21;100.00;100756.16;5878266;30;20048;-89
2023/09/16 06:36:11;;;;;;;7.40;6.13;;;;;;;15.32;100.00;100759.50;5873049;30;20481;-89
2023/09/16 06:39:13;;;;;;;7.97;6.57;;;;;;;15.43;100.00;100748.88;5873784;30;20063;-89
2023/09/16 06:42:15;;;;;;;9.10;6.97;;;;;;;15.55;100.00;100752.09;5862429;30;20060;-89
2023/09/16 06:45:17;;;;;;;9.05;6.00;;;;;;;15.65;100.00;100753.69;5882588;30;20055;-89
2023/09/16 06:48:19;;;;;;;8.38;6.00;;;;;;;15.78;100.00;100752.53;5867076;30;20053;-89
2023/09/16 06:51:21;;;;;;;7.50;6.22;;;;;;;15.87;100.00;100741.16;5870714;30;20049;-89
2023/09/16 06:54:23;;;;;;;7.80;6.43;;;;;;;16.02;100.00;100744.88;5878126;30;20059;-90
2023/09/16 06:57:26;;;;;;;8.13;6.15;;;;;;;16.17;100.00;100734.69;5881214;30;20170;-90
2023/09/16 07:00:27;;;;;;;7.40;5.50;;;;;;;16.31;100.00;100728.09;5873171;30;20053;-90
2023/09/16 07:03:29;;;;;;;5.57;5.05;;;;;;;16.40;100.00;100724.59;5878029;30;20209;-90
2023/09/16 07:06:32;;;;;;;7.30;5.05;;;;;;;16.48;100.00;100721.19;5859223;30;20048;-90
2023/09/16 07:09:34;;;;;;;10.07;5.68;;;;;;;16.56;100.00;100705.56;5879426;30;20097;-89
2023/09/16 07:12:36;;;;;;;6.57;5.70;;;;;;;16.62;100.00;100698.88;5866224;30;20082;-90
2023/09/16 07:15:38;;;;;;;6.70;5.47;;;;;;;16.65;100.00;100688.13;5867908;30;20068;-89
2023/09/16 07:18:46;;;;;;;7.22;5.78;;;;;;;16.71;100.00;100679.66;5869587;30;20501;-90
2023/09/16 07:21:48;;;;;;;8.50;5.80;;;;;;;16.82;100.00;100682.03;5876913;30;20051;-90
2023/09/16 07:24:50;;;;;;;8.13;5.75;;;;;;;16.91;100.00;100678.44;5862639;30;20133;-90
2023/09/16 07:27:53;;;;;;;7.30;5.50;;;;;;;17.01;100.00;100673.88;5858662;30;20048;-90
2023/09/16 07:30:57;;;;;;;9.20;5.80;;;;;;;17.11;100.00;100671.13;5855910;30;20056;-90
2023/09/16 07:33:58;;;;;;;5.85;4.95;;;;;;;17.21;100.00;100676.22;5874188;30;20419;-90
2023/09/16 07:37:03;;;;;;;6.57;5.80;;;;;;;17.28;100.00;100674.59;5883149;30;20049;-91
2023/09/16 07:40:05;;;;;;;8.48;5.53;;;;;;;17.27;100.00;100670.38;5878948;30;20468;-90
2023/09/16 07:43:11;;;;;;;7.00;5.40;;;;;;;17.29;100.00;100665.78;5875123;30;20443;-90
2023/09/16 07:46:14;;;;;;;5.97;5.38;;;;;;;17.36;100.00;100672.00;5862425;30;20049;-91
2023/09/16 07:49:16;;;;;;;6.57;5.00;;;;;;;17.39;100.00;100679.53;5848451;30;20037;-90
2023/09/16 07:52:18;;;;;;;7.43;5.28;;;;;;;17.44;100.00;100676.44;5879688;30;20591;-90
2023/09/16 07:55:20;;;;;;;6.85;5.78;;;;;;;17.42;100.00;100671.34;5871375;30;20051;-90
2023/09/16 07:58:23;;;;;;;7.13;5.55;;;;;;;17.40;100.00;100681.16;5869779;30;20086;-91
2023/09/16 08:01:24;;;;;;;8.10;5.50;;;;;;;17.30;100.00;100672.66;5863039;30;20055;-90
2023/09/16 08:04:26;;;;;;;7.47;5.68;;;;;;;17.20;100.00;100685.88;5868259;30;20136;-90
2023/09/16 08:07:29;;;;;;;6.30;5.35;;;;;;;17.10;100.00;100677.34;5880114;30;20121;-90
2023/09/16 08:10:31;;;;;;;6.15;5.32;;;;;;;16.97;100.00;100688.28;5867158;30;20515;-90
2023/09/16 08:13:35;;;;;;;7.45;5.82;;;;;;;16.89;100.00;100684.81;5852338;30;20088;-90
2023/09/16 08:16:39;;;;;;;7.10;5.68;;;;;;;16.80;100.00;100689.19;5873942;30;20565;-90
2023/09/16 08:19:41;;;;;;;7.35;5.50;;;;;;;16.71;100.00;100680.47;5881235;30;20044;-90
2023/09/16 08:22:42;;;;;;;6.95;5.55;;;;;;;16.67;100.00;100686.16;5866267;30;20060;-90
2023/09/16 08:25:45;;;;;;;7.35;5.40;;;;;;;16.65;100.00;100688.13;5849330;30;20514;-90
2023/09/16 08:28:47;;;;;;;6.07;5.47;;;;;;;-145.48;100.00;76928.69;5874433;30;20053;-90
2023/09/16 08:31:49;;;;;;;8.32;5.50;;;;;;;16.65;100.00;100688.13;5880360;30;20485;-91
2023/09/16 08:34:51;;;;;;;9.13;5.95;;;;;;;16.71;100.00;100682.25;5877311;30;20528;-91
2023/09/16 08:37:58;;;;;;;6.20;5.50;;;;;;;16.73;100.00;100678.50;5861426;30;20053;-91
2023/09/16 08:41:08;;;;;;;6.47;5.47;;;;;;;16.78;100.00;100688.53;5882257;30;20048;-91
2023/09/16 08:44:14;;;;;;;7.72;5.70;;;;;;;16.83;100.00;100678.41;5878147;30;20047;-91
2023/09/16 08:47:29;;;;;;;6.70;5.40;;;;;;;16.90;100.00;100682.03;5880439;30;20048;-91
2023/09/16 08:50:33;;;;;;;6.05;5.45;;;;;;;16.98;100.00;100682.06;5872390;30;20416;-91
2023/09/16 08:53:36;;;;;;;8.02;5.00;;;;;;;17.10;100.00;100679.16;5876540;30;20140;-91
2023/09/16 08:56:41;;;;;;;12.30;5.78;;;;;;;17.20;100.00;100680.63;5876752;30;20122;-91
2023/09/16 08:59:44;;;;;;;5.95;5.28;;;;;;;17.29;100.00;100680.66;5882215;30;20063;-91
2023/09/16 09:02:48;;;;;;;7.57;5.35;;;;;;;17.38;100.00;100680.50;5878875;30;20051;-91
2023/09/16 09:05:52;;;;;;;7.95;5.65;;;;;;;17.47;100.00;100680.53;5865893;30;20060;-91
2023/09/16 09:08:54;;;;;;;6.78;5.10;;;;;;;17.47;100.00;100680.53;5878107;30;20059;-91
2023/09/16 09:11:58;;;;;;;5.95;5.28;;;;;;;17.62;100.00;100682.31;5868363;30;20421;-91
2023/09/16 09:15:04;;;;;;;7.90;4.93;;;;;;;17.62;100.00;100682.31;5867620;30;20050;-91
2023/09/16 09:18:07;;;;;;;6.15;4.63;;;;;;;-145.48;100.00;64539.38;5872363;30;20052;-91
2023/09/16 09:21:10;;;;;;;5.53;4.93;;;;;;;-145.48;100.00;64539.38;5867334;30;20047;-91
2023/09/16 09:24:13;;;;;;;7.95;5.63;;;;;;;-145.48;100.00;64539.38;5872716;30;20493;-90
2023/09/16 09:27:14;;;;;;;5.70;5.20;;;;;;;-145.48;100.00;64539.38;5868840;30;20047;-91
2023/09/16 09:30:21;;;;;;;5.60;5.00;;;;;;;-145.48;100.00;64539.38;5878173;30;20059;-91
2023/09/16 09:33:26;;;;;;;6.80;4.85;;;;;;;-145.48;100.00;64539.38;5863511;30;20101;-91
2023/09/16 09:36:32;;;;;;;7.50;5.22;;;;;;;-145.48;100.00;64539.38;5875106;30;20044;-91
2023/09/16 09:39:34;;;;;;;7.22;4.70;;;;;;;-145.48;100.00;64539.38;5867460;30;20546;-91
2023/09/16 09:42:48;;;;;;;6.88;4.65;;;;;;;-145.48;100.00;64539.38;5873605;30;20045;-91
2023/09/16 09:45:50;;;;;;;6.18;4.63;;;;;;;-145.48;100.00;64539.38;5863876;30;20062;-91
2023/09/16 09:48:52;;;;;;;6.57;4.78;;;;;;;-145.48;100.00;64539.38;5871341;30;20057;-91
2023/09/16 09:51:54;;;;;;;5.10;4.10;;;;;;;-145.48;100.00;64539.38;5867745;30;20128;-91
2023/09/16 09:54:57;;;;;;;7.40;4.78;;;;;;;-145.48;100.00;64539.38;5871492;30;20052;-91
2023/09/16 09:58:00;;;;;;;6.47;4.65;;;;;;;-145.48;100.00;64539.38;5850840;30;20111;-90
2023/09/16 10:01:02;;;;;;;5.57;4.10;;;;;;;-145.48;100.00;64539.38;5871148;30;20071;-90
2023/09/16 10:04:04;;;;;;;6.68;4.97;;;;;;;-145.48;100.00;64539.38;5857873;30;20178;-90
2023/09/16 10:07:08;;;;;;;5.20;4.10;;;;;;;-145.48;100.00;64539.38;5867415;30;20785;-90
2023/09/16 10:10:16;;;;;;;10.98;5.20;;;;;;;-145.48;100.00;64539.38;5857589;30;20048;-90
2023/09/16 10:13:18;;;;;;;6.55;4.43;;;;;;;-145.48;100.00;64539.38;5865309;30;20055;-90
2023/09/16 10:16:20;;;;;;;6.35;4.05;;;;;;;-145.48;100.00;64539.38;5871457;30;20105;-90
2023/09/16 10:19:22;;;;;;;4.90;4.20;;;;;;;-145.48;100.00;64539.38;5868653;30;20044;-90
2023/09/16 10:22:24;;;;;;;5.05;3.72;;;;;;;-145.48;100.00;64539.38;5875998;30;20067;-90
2023/09/16 10:25:31;;;;;;;5.20;3.85;;;;;;;-145.48;100.00;64539.38;5873762;30;20328;-90
2023/09/16 10:28:46;;;;;;;4.93;4.13;;;;;;;-145.48;100.00;64539.38;5873272;30;20055;-89
2023/09/16 10:31:50;;;;;;;4.40;4.00;;;;;;;-145.48;100.00;64539.38;5879318;30;20056;-90
2023/09/16 10:34:54;;;;;;;5.35;3.85;;;;;;;-145.48;100.00;64539.38;5875466;30;20530;-90
2023/09/16 10:37:58;;;;;;;4.85;4.00;;;;;;;-145.48;100.00;64539.38;5878198;30;20299;-90
2023/09/16 10:41:02;;;;;;;4.90;4.10;;;;;;;-145.48;100.00;64539.38;5868519;30;20048;-90
2023/09/16 10:44:05;;;;;;;5.03;3.78;;;;;;;-145.48;100.00;64539.38;5852887;30;20060;-90
2023/09/16 10:47:09;;;;;;;5.82;3.88;;;;;;;-145.48;100.00;64539.38;5878523;30;20525;-90
2023/09/16 10:50:11;;;;;;;5.30;3.55;;;;;;;-145.48;100.00;64539.38;5871463;30;20417;-90
2023/09/16 10:53:26;;;;;;;5.43;3.72;;;;;;;-145.48;100.00;64539.38;5880616;30;20060;-90
2023/09/16 10:56:35;;;;;;;6.88;4.07;;;;;;;-145.48;100.00;64539.38;5877792;30;20048;-90
2023/09/16 10:59:39;;;;;;;5.80;3.97;;;;;;;-145.48;100.00;64539.38;5870431;30;20334;-91
2023/09/16 11:02:51;;;;;;;7.22;4.63;;;;;;;-145.48;100.00;64539.38;5866730;30;20469;-90
2023/09/16 11:05:53;;;;;;;5.50;3.72;;;;;;;-145.48;100.00;64539.38;5859795;30;20413;-90
2023/09/16 11:08:55;;;;;;;5.80;3.70;;;;;;;-145.48;100.00;64539.38;5873020;30;20067;-91
2023/09/16 11:11:58;;;;;;;5.07;3.70;;;;;;;-145.48;100.00;64539.38;5852699;30;20113;-90
2023/09/16 11:15:08;;;;;;;5.75;4.10;;;;;;;-145.48;100.00;64539.38;5882907;30;20495;-91
2023/09/16 11:18:10;;;;;;;4.47;4.07;;;;;;;-145.48;100.00;64539.38;5878303;30;20637;-91
2023/09/16 11:21:12;;;;;;;5.30;4.40;;;;;;;-145.48;100.00;64539.38;5875373;30;20055;-91
2023/09/16 11:24:14;;;;;;;6.93;4.28;;;;;;;-145.48;100.00;64539.38;5875759;30;20186;-91
2023/09/16 11:27:17;;;;;;;4.63;3.65;;;;;;;-145.48;100.00;64539.38;5877383;30;20052;-90
2023/09/16 11:30:19;;;;;;;5.03;4.10;;;;;;;-145.48;100.00;64539.38;5876509;30;20122;-91
2023/09/16 11:33:33;;;;;;;6.85;4.47;;;;;;;-145.48;100.00;64539.38;5870586;30;20040;-90
2023/09/16 11:36:35;;;;;;;6.93;3.78;;;;;;;-145.48;100.00;64539.38;5874022;30;20063;-91
2023/09/16 11:39:43;;;;;;;5.22;4.15;;;;;;;-145.48;100.00;64539.38;5881090;30;20051;-90
2023/09/16 11:42:45;;;;;;;5.55;3.83;;;;;;;-145.48;100.00;64539.38;5881295;30;20056;-91
2023/09/16 11:45:47;;;;;;;5.03;3.85;;;;;;;-145.48;100.00;64539.38;5876047;30;20049;-91
2023/09/16 11:48:54;;;;;;;4.47;3.60;;;;;;;-145.48;100.00;64539.38;5880227;30;20041;-90
2023/09/16 11:51:57;;;;;;;5.72;3.60;;;;;;;-145.48;100.00;64539.38;5870712;30;20067;-90
2023/09/16 11:55:00;;;;;;;6.45;3.75;;;;;;;-145.48;100.00;64539.38;5879440;30;20902;-90
2023/09/16 11:58:02;;;;;;;3.80;3.40;;;;;;;-145.48;100.00;64539.38;5872439;30;20060;-90
2023/09/16 12:01:04;;;;;;;4.75;3.70;;;;;;;-145.48;100.00;64539.38;5873840;30;20086;-90
2023/09/16 12:04:09;;;;;;;4.63;3.60;;;;;;;-145.48;100.00;64539.38;5880413;30;20041;-91
2023/09/16 12:07:12;;;;;;;7.10;3.45;;;;;;;-145.48;100.00;64539.38;5848731;30;20079;-90
2023/09/16 12:10:14;;;;;;;4.30;3.40;;;;;;;-145.48;100.00;64539.38;5860437;30;20055;-91
2023/09/16 12:13:30;;;;;;;4.75;3.40;;;;;;;-145.48;100.00;64539.38;5866449;30;20461;-91
2023/09/16 12:16:35;;;;;;;3.95;3.30;;;;;;;-145.48;100.00;64539.38;5875033;30;20052;-91
2023/09/16 12:19:48;;;;;;;6.15;3.67;;;;;;;-145.48;100.00;64539.38;5882229;30;20586;-90
2023/09/16 12:22:52;;;;;;;7.20;3.40;;;;;;;-145.48;100.00;64539.38;5884101;30;20143;-91
2023/09/16 12:25:54;;;;;;;4.45;3.50;;;;;;;-145.48;100.00;64539.38;5878577;30;20052;-90
2023/09/16 12:28:56;;;;;;;4.43;2.90;;;;;;;-145.48;100.00;64539.38;5867147;30;20044;-90
2023/09/16 12:32:21;;;;;;;3.30;3.00;;;;;;;-145.48;100.00;64539.38;5882483;30;20554;-90
2023/09/16 12:35:23;;;;;;;4.93;3.47;;;;;;;-145.48;100.00;64539.38;5873950;30;20504;-90
2023/09/16 12:38:25;;;;;;;3.80;3.10;;;;;;;-145.48;100.00;64539.38;5876456;30;20063;-90
2023/09/16 12:41:30;;;;;;;4.95;2.97;;;;;;;-145.48;100.00;64539.38;5876328;30;20045;-90
2023/09/16 12:44:35;;;;;;;3.50;3.08;;;;;;;-145.48;100.00;64539.38;5878063;30;20514;-90
2023/09/16 12:47:36;;;;;;;3.60;3.30;;;;;;;-145.48;100.00;64539.38;5881437;30;20060;-90
2023/09/16 12:50:40;;;;;;;5.93;3.03;;;;;;;-145.48;100.00;64539.38;5876344;30;20424;-90
2023/09/16 12:53:42;;;;;;;4.65;2.97;;;;;;;-145.48;100.00;64539.38;5879121;30;20063;-90
2023/09/16 12:56:48;;;;;;;4.13;2.92;;;;;;;-145.48;100.00;64539.38;5872408;30;20437;-90
2023/09/16 13:00:03;;;;;;;3.47;2.70;;;;;;;-145.48;100.00;64539.38;5880517;30;20063;-90
2023/09/16 13:03:06;;;;;;;4.53;3.15;;;;;;;-145.48;100.00;64539.38;5878152;30;20082;-90
2023/09/16 13:06:08;;;;;;;4.50;3.25;;;;;;;-145.48;100.00;64539.38;5875197;30;20052;-90
2023/09/16 13:09:11;;;;;;;2.70;2.50;;;;;;;-145.48;100.00;64539.38;5877444;30;20125;-90
2023/09/16 13:12:14;;;;;;;3.20;2.90;;;;;;;-145.48;100.00;64539.38;5868404;30;20048;-90
2023/09/16 13:15:21;;;;;;;4.40;2.80;;;;;;;-145.48;100.00;64539.38;5872578;30;20115;-90
2023/09/16 13:18:24;;;;;;;4.68;2.70;;;;;;;-145.48;100.00;64539.38;5878499;30;20094;-90
2023/09/16 13:21:34;;;;;;;3.75;3.15;;;;;;;-145.48;100.00;64539.38;5847567;30;20051;-90
2023/09/16 13:24:45;;;;;;;3.90;2.78;;;;;;;-145.48;100.00;64539.38;5880113;30;20059;-90
2023/09/16 13:27:47;;;;;;;3.15;2.80;;;;;;;-145.48;100.00;64539.38;5871174;30;20059;-90
2023/09/16 13:30:55;;;;;;;3.33;2.53;;;;;;;-145.48;100.00;64539.38;5876707;30;20036;-90
2023/09/16 13:34:04;;;;;;;3.00;2.50;;;;;;;-145.48;100.00;64539.38;5880061;30;20052;-90
2023/09/16 13:37:06;;;;;;;5.32;2.60;;;;;;;-145.48;100.00;64539.38;5863318;30;20524;-90
2023/09/16 13:40:10;;;;;;;3.38;2.70;;;;;;;-145.48;100.00;64539.38;5867827;30;20056;-90
2023/09/16 13:43:12;;;;;;;3.70;2.67;;;;;;;-145.48;100.00;64539.38;5863038;30;20061;-90
2023/09/16 13:46:17;;;;;;;4.15;2.63;;;;;;;-145.48;100.00;64539.38;5880166;30;20083;-90
2023/09/16 13:49:18;;;;;;;2.83;2.40;;;;;;;-145.48;100.00;64539.38;5882443;30;20040;-90
2023/09/16 13:52:21;;;;;;;4.47;3.13;;;;;;;-145.48;100.00;64539.38;5863331;30;20051;-90
2023/09/16 13:55:25;;;;;;;4.90;2.70;;;;;;;-145.48;100.00;64539.38;5851537;30;20296;-90
2023/09/16 13:58:28;;;;;;;3.00;2.53;;;;;;;-145.48;100.00;64539.38;5874679;30;20405;-90